createdAt,value
2023-01-25T00:00:46.080Z,101775.27
2023-01-25T00:03:52.165Z,101771.03
2023-01-25T00:06:57.711Z,101772.12
2023-01-25T00:10:04.525Z,101771.44
2023-01-25T00:13:11.090Z,101771.44
2023-01-25T00:16:19.571Z,101774.81
2023-01-25T00:19:25.720Z,101769.56
2023-01-25T00:22:31.075Z,101767.88
2023-01-25T00:25:37.563Z,101760.97
2023-01-25T00:28:43.191Z,101762.61
2023-01-25T00:32:05.233Z,101767.97
2023-01-25T00:35:13.177Z,101754.30
2023-01-25T00:38:13.454Z,101753.71
2023-01-25T00:41:06.066Z,101750.22
2023-01-25T00:44:12.569Z,101755.30
2023-01-25T00:47:18.626Z,101754.77
2023-01-25T00:50:24.764Z,101743.99
2023-01-25T00:53:30.886Z,101741.39
2023-01-25T00:56:36.247Z,101738.61
2023-01-25T00:59:42.247Z,101735.20
2023-01-25T01:02:48.092Z,101739.63
2023-01-25T01:05:53.795Z,101740.95
2023-01-25T01:09:00.129Z,101734.86
2023-01-25T01:12:07.115Z,101743.23
2023-01-25T01:15:14.098Z,101744.34
2023-01-25T01:18:20.747Z,101739.16
2023-01-25T01:21:28.269Z,101734.56
2023-01-25T01:24:34.562Z,101734.92
2023-01-25T01:27:40.386Z,101730.52
2023-01-25T01:30:46.975Z,101731.80
2023-01-25T01:33:53.124Z,101736.38
2023-01-25T01:36:58.669Z,101731.08
2023-01-25T01:40:06.998Z,101728.11
2023-01-25T01:43:14.993Z,101724.47
2023-01-25T01:46:38.717Z,101722.43
2023-01-25T01:49:46.471Z,101717.34
2023-01-25T01:52:46.426Z,101717.31
2023-01-25T01:55:52.935Z,101718.95
2023-01-25T01:58:58.646Z,101703.17
2023-01-25T02:02:05.205Z,101707.92
2023-01-25T02:05:13.147Z,101703.32
2023-01-25T02:08:20.648Z,101703.42
2023-01-25T02:11:28.322Z,101707.72
2023-01-25T02:14:33.474Z,101699.78
2023-01-25T02:17:47.188Z,101693.68
2023-01-25T02:20:57.232Z,101686.80
2023-01-25T02:24:20.042Z,101684.49
2023-01-25T02:27:26.797Z,101682.42
2023-01-25T02:30:31.487Z,101679.77
2023-01-25T02:33:42.394Z,101681.31
2023-01-25T02:36:49.018Z,101678.00
2023-01-25T02:39:56.683Z,101678.23
2023-01-25T02:43:02.650Z,101675.06
2023-01-25T02:46:17.363Z,101676.88
2023-01-25T02:49:23.354Z,101678.61
2023-01-25T02:52:28.928Z,101685.20
2023-01-25T02:55:34.758Z,101683.05
2023-01-25T02:58:41.302Z,101685.06
2023-01-25T03:01:49.110Z,101682.37
2023-01-25T03:04:54.480Z,101686.35
2023-01-25T03:08:00.224Z,101680.80
2023-01-25T03:11:05.936Z,101680.11
2023-01-25T03:14:12.953Z,101676.25
2023-01-25T03:17:18.591Z,101680.91
2023-01-25T03:20:25.854Z,101682.99
2023-01-25T03:23:31.698Z,101684.58
2023-01-25T03:26:38.530Z,101685.98
2023-01-25T03:29:46.076Z,101682.66
2023-01-25T03:32:54.078Z,101690.50
2023-01-25T03:35:59.417Z,101680.92
2023-01-25T03:39:05.185Z,101679.19
2023-01-25T03:42:14.725Z,101684.73
2023-01-25T03:45:21.654Z,101688.77
2023-01-25T03:48:26.229Z,101688.47
2023-01-25T03:51:31.982Z,101685.45
2023-01-25T03:54:38.238Z,101685.63
2023-01-25T03:57:43.551Z,101690.48
2023-01-25T04:00:50.011Z,101693.67
2023-01-25T04:03:56.314Z,101699.36
2023-01-25T04:07:00.997Z,101687.66
2023-01-25T04:10:08.705Z,101697.14
2023-01-25T04:13:17.320Z,101693.77
2023-01-25T04:16:24.818Z,101693.67
2023-01-25T04:19:32.645Z,101687.17
2023-01-25T04:22:41.485Z,101687.70
2023-01-25T04:25:49.328Z,101686.78
2023-01-25T04:28:55.534Z,101682.62
2023-01-25T04:32:01.568Z,101687.01
2023-01-25T04:35:14.229Z,101683.38
2023-01-25T04:38:20.282Z,101692.46
2023-01-25T04:41:26.833Z,101683.96
2023-01-25T04:44:31.977Z,101691.67
2023-01-25T04:47:37.561Z,101684.08
2023-01-25T04:50:44.156Z,101675.69
2023-01-25T04:53:45.816Z,101683.64
2023-01-25T04:56:51.853Z,101678.75
2023-01-25T04:59:59.079Z,101685.70
2023-01-25T05:03:04.683Z,101681.74
2023-01-25T05:06:10.191Z,101683.86
2023-01-25T05:09:16.321Z,101681.41
2023-01-25T05:12:22.375Z,101683.08
2023-01-25T05:15:29.699Z,101681.10
2023-01-25T05:18:47.816Z,101677.55
2023-01-25T05:22:02.703Z,101696.05
2023-01-25T05:25:13.078Z,101693.84
2023-01-25T05:28:20.620Z,101698.39
2023-01-25T05:31:31.462Z,101696.97
2023-01-25T05:34:37.280Z,101693.16
2023-01-25T05:37:43.834Z,101698.11
2023-01-25T05:40:52.700Z,101700.61
2023-01-25T05:44:00.380Z,101696.80
2023-01-25T05:47:08.335Z,101699.72
2023-01-25T05:50:14.108Z,101701.15
2023-01-25T05:53:27.889Z,101694.81
2023-01-25T05:56:35.473Z,101700.02
2023-01-25T05:59:41.270Z,101703.09
2023-01-25T06:02:50.834Z,101699.64
2023-01-25T06:05:57.613Z,101696.91
2023-01-25T06:08:56.827Z,101691.98
2023-01-25T06:12:02.832Z,101699.55
2023-01-25T06:15:09.374Z,101699.19
2023-01-25T06:18:15.500Z,101699.03
2023-01-25T06:21:28.556Z,101695.13
2023-01-25T06:24:34.783Z,101695.23
2023-01-25T06:27:40.841Z,101699.60
2023-01-25T06:30:45.407Z,101700.63
2023-01-25T06:33:51.196Z,101698.71
2023-01-25T06:36:57.855Z,101695.88
2023-01-25T06:40:03.889Z,101694.40
2023-01-25T06:43:12.069Z,101689.36
2023-01-25T06:46:22.760Z,101693.05
2023-01-25T06:49:27.654Z,101695.88
2023-01-25T06:52:32.096Z,101701.15
2023-01-25T06:55:37.954Z,101707.09
2023-01-25T06:58:46.015Z,101705.72
2023-01-25T07:01:51.707Z,101701.73
2023-01-25T07:04:59.459Z,101699.39
2023-01-25T07:08:06.202Z,101699.67
2023-01-25T07:11:16.516Z,101688.94
2023-01-25T07:14:22.485Z,101694.41
2023-01-25T07:17:28.883Z,101700.50
2023-01-25T07:20:34.481Z,101694.48
2023-01-25T07:23:41.117Z,101702.72
2023-01-25T07:26:46.713Z,101697.57
2023-01-25T07:29:54.342Z,101694.87
2023-01-25T07:32:59.676Z,101699.55
2023-01-25T07:36:05.556Z,101696.23
2023-01-25T07:39:13.333Z,101703.05
2023-01-25T07:42:18.401Z,101697.19
2023-01-25T07:45:26.526Z,101686.95
2023-01-25T07:48:33.201Z,101691.08
2023-01-25T07:51:39.125Z,101687.42
2023-01-25T07:54:44.552Z,101676.16
2023-01-25T07:57:51.244Z,101679.87
2023-01-25T08:00:50.350Z,101682.64
2023-01-25T08:03:57.209Z,101682.26
2023-01-25T08:07:02.905Z,101678.89
2023-01-25T08:10:09.790Z,101681.19
2023-01-25T08:13:16.202Z,101675.38
2023-01-25T08:16:22.105Z,101680.78
2023-01-25T08:19:44.316Z,101682.41
2023-01-25T08:22:49.485Z,101676.88
2023-01-25T08:25:56.014Z,101665.75
2023-01-25T08:29:02.167Z,101667.45
2023-01-25T08:32:07.311Z,101663.69
2023-01-25T08:35:13.480Z,101654.35
2023-01-25T08:38:19.799Z,101658.78
2023-01-25T08:41:30.587Z,101649.80
2023-01-25T08:44:36.139Z,101643.00
2023-01-25T08:47:40.976Z,101647.20
2023-01-25T08:50:47.048Z,101636.56
2023-01-25T08:53:52.622Z,101634.27
2023-01-25T08:56:58.712Z,101629.36
2023-01-25T09:00:04.364Z,101628.94
2023-01-25T09:03:12.114Z,101619.00
2023-01-25T09:06:17.696Z,101614.58
2023-01-25T09:09:22.995Z,101615.11
2023-01-25T09:12:28.662Z,101612.73
2023-01-25T09:15:34.767Z,101615.53
2023-01-25T09:18:39.649Z,101612.30
2023-01-25T09:21:45.470Z,101600.88
2023-01-25T09:24:53.595Z,101592.22
2023-01-25T09:27:59.825Z,101586.93
2023-01-25T09:31:28.104Z,101582.61
2023-01-25T09:34:38.365Z,101575.77
2023-01-25T09:37:24.810Z,101577.88
2023-01-25T09:40:25.051Z,101574.62
2023-01-25T09:43:42.323Z,101573.48
2023-01-25T09:47:14.455Z,101568.68
2023-01-25T09:50:51.456Z,101562.73
2023-01-25T09:54:09.979Z,101562.73
2023-01-25T09:57:15.958Z,101554.04
2023-01-25T10:00:33.183Z,101555.49
2023-01-25T10:03:49.475Z,101555.11
2023-01-25T10:07:01.804Z,101555.18
2023-01-25T10:10:28.448Z,101547.62
2023-01-25T10:13:38.343Z,101542.32
2023-01-25T10:16:52.882Z,101536.13
2023-01-25T10:20:36.098Z,101534.70
2023-01-25T10:24:25.599Z,101544.63
2023-01-25T10:27:59.612Z,101534.98
2023-01-25T10:31:16.149Z,101530.73
2023-01-25T10:34:56.962Z,101526.88
2023-01-25T10:38:07.021Z,101528.63
2023-01-25T10:41:19.666Z,101524.67
2023-01-25T10:44:31.645Z,101519.48
2023-01-25T10:47:50.378Z,101515.91
2023-01-25T10:50:59.038Z,101509.70
2023-01-25T10:54:08.762Z,101510.07
2023-01-25T10:57:14.241Z,101507.94
2023-01-25T11:00:23.136Z,101494.04
2023-01-25T11:03:35.658Z,101495.95
2023-01-25T11:06:57.072Z,101494.68
2023-01-25T11:10:02.994Z,101491.11
2023-01-25T11:13:32.805Z,101497.13
2023-01-25T11:16:45.227Z,101503.20
2023-01-25T11:19:55.093Z,101499.41
2023-01-25T11:23:08.856Z,101499.04
2023-01-25T11:26:30.908Z,101501.81
2023-01-25T11:29:37.512Z,101498.70
2023-01-25T11:32:57.126Z,101502.33
2023-01-25T11:35:51.110Z,101511.31
2023-01-25T11:39:08.842Z,101501.44
2023-01-25T11:42:36.694Z,101509.14
2023-01-25T11:45:56.002Z,101504.36
2023-01-25T11:49:27.733Z,101505.39
2023-01-25T11:53:00.837Z,101506.96
2023-01-25T11:56:34.063Z,101502.98
2023-01-25T12:00:12.476Z,101505.84
2023-01-25T12:03:27.491Z,101499.59
2023-01-25T12:07:14.623Z,101495.66
2023-01-25T12:10:55.645Z,101495.36
2023-01-25T12:14:28.177Z,101504.37
2023-01-25T12:18:04.322Z,101495.23
2023-01-25T12:21:55.030Z,101487.58
2023-01-25T12:25:30.513Z,101488.88
2023-01-25T12:28:39.349Z,101497.36
2023-01-25T12:31:57.631Z,101484.70
2023-01-25T12:35:09.920Z,101480.55
2023-01-25T12:38:29.393Z,101473.61
2023-01-25T12:41:48.286Z,101470.33
2023-01-25T12:45:04.131Z,101474.47
2023-01-25T12:48:37.118Z,101474.39
2023-01-25T12:51:50.980Z,101468.09
2023-01-25T12:54:50.710Z,101477.25
2023-01-25T12:58:07.444Z,101470.87
2023-01-25T13:01:28.382Z,101472.79
2023-01-25T13:04:45.223Z,101471.73
2023-01-25T13:08:00.887Z,101466.20
2023-01-25T13:11:10.537Z,101468.61
2023-01-25T13:14:51.461Z,101467.25
2023-01-25T13:17:57.577Z,101468.22
2023-01-25T13:21:04.974Z,101467.35
2023-01-25T13:28:03.470Z,101462.62
2023-01-25T13:31:09.122Z,101454.81
2023-01-25T13:34:15.102Z,101462.84
2023-01-25T13:37:40.924Z,101462.16
2023-01-25T13:40:52.894Z,101455.30
2023-01-25T13:44:01.003Z,101458.30
2023-01-25T13:47:06.396Z,101454.74
2023-01-25T13:50:19.552Z,101457.42
2023-01-25T13:53:34.601Z,101459.34
2023-01-25T13:56:47.209Z,101460.81
2023-01-25T13:59:59.032Z,101456.58
2023-01-25T14:03:08.003Z,101453.86
2023-01-25T14:06:14.140Z,101454.91
2023-01-25T14:09:26.538Z,101456.66
2023-01-25T14:12:55.366Z,101455.01
2023-01-25T14:16:16.401Z,101450.30
2023-01-25T14:19:38.566Z,101444.30
2023-01-25T14:22:48.065Z,101446.42
2023-01-25T14:25:54.093Z,101451.73
2023-01-25T14:29:02.652Z,101447.55
2023-01-25T14:32:08.154Z,101444.38
2023-01-25T14:35:13.097Z,101443.77
2023-01-25T14:38:38.701Z,101451.58
2023-01-25T14:42:00.880Z,101440.97
2023-01-25T14:45:02.787Z,101448.05
2023-01-25T14:48:08.577Z,101450.69
2023-01-25T14:51:33.079Z,101453.45
2023-01-25T14:54:41.948Z,101453.00
2023-01-25T14:57:55.591Z,101457.86
2023-01-25T15:01:15.803Z,101461.81
2023-01-25T15:04:26.349Z,101458.09
2023-01-25T15:07:59.454Z,101457.86
2023-01-25T15:11:27.893Z,101459.70
2023-01-25T15:14:35.737Z,101472.00
2023-01-25T15:18:01.107Z,101466.55
2023-01-25T15:21:06.631Z,101470.77
2023-01-25T15:24:14.105Z,101464.44
2023-01-25T15:27:19.577Z,101467.13
2023-01-25T15:30:31.492Z,101462.98
2023-01-25T15:33:39.586Z,101461.81
2023-01-25T15:36:46.378Z,101468.91
2023-01-25T15:39:52.497Z,101461.06
2023-01-25T15:42:58.157Z,101463.20
2023-01-25T15:46:05.301Z,101467.75
2023-01-25T15:49:10.644Z,101463.75
2023-01-25T15:52:17.026Z,101460.78
2023-01-25T15:55:25.518Z,101456.80
2023-01-25T15:58:36.560Z,101459.11
2023-01-25T16:01:43.340Z,101462.70
2023-01-25T16:04:49.356Z,101461.87
2023-01-25T16:07:54.624Z,101460.76
2023-01-25T16:11:00.702Z,101458.75
2023-01-25T16:14:07.488Z,101457.63
2023-01-25T16:17:18.437Z,101459.59
2023-01-25T16:20:25.820Z,101458.13
2023-01-25T16:23:31.305Z,101463.72
2023-01-25T16:26:40.170Z,101464.84
2023-01-25T16:29:45.006Z,101460.54
2023-01-25T16:32:51.985Z,101462.88
2023-01-25T16:35:58.691Z,101462.19
2023-01-25T16:39:03.958Z,101462.64
2023-01-25T16:42:09.233Z,101470.59
2023-01-25T16:45:15.032Z,101470.81
2023-01-25T16:48:22.683Z,101464.36
2023-01-25T16:51:35.699Z,101468.39
2023-01-25T16:54:41.375Z,101462.05
2023-01-25T16:57:46.632Z,101460.08
2023-01-25T17:00:54.226Z,101459.45
2023-01-25T17:04:00.855Z,101467.30
2023-01-25T17:07:06.431Z,101459.92
2023-01-25T17:10:14.006Z,101466.30
2023-01-25T17:13:20.641Z,101459.75
2023-01-25T17:16:26.257Z,101458.20
2023-01-25T17:19:31.981Z,101456.01
2023-01-25T17:22:39.457Z,101464.14
2023-01-25T17:25:44.953Z,101457.37
2023-01-25T17:28:44.748Z,101456.52
2023-01-25T17:31:50.725Z,101461.28
2023-01-25T17:34:56.647Z,101457.16
2023-01-25T17:38:03.400Z,101452.27
2023-01-25T17:41:08.034Z,101453.51
2023-01-25T17:44:14.922Z,101450.58
2023-01-25T17:47:20.439Z,101451.73
2023-01-25T17:50:25.181Z,101446.65
2023-01-25T17:53:31.220Z,101449.73
2023-01-25T17:56:39.332Z,101454.14
2023-01-25T17:59:37.671Z,101448.23
2023-01-25T18:02:44.023Z,101451.17
2023-01-25T18:05:52.351Z,101450.58
2023-01-25T18:09:06.806Z,101456.58
2023-01-25T18:12:12.165Z,101450.63
2023-01-25T18:15:19.643Z,101450.73
2023-01-25T18:18:26.103Z,101448.81
2023-01-25T18:21:35.537Z,101454.43
2023-01-25T18:24:51.363Z,101449.73
2023-01-25T18:28:00.073Z,101447.63
2023-01-25T18:31:08.051Z,101446.35
2023-01-25T18:34:14.219Z,101446.52
2023-01-25T18:37:27.780Z,101441.85
2023-01-25T18:40:33.531Z,101444.09
2023-01-25T18:43:40.608Z,101444.71
2023-01-25T18:46:48.059Z,101440.30
2023-01-25T18:49:54.006Z,101443.86
2023-01-25T18:53:00.671Z,101436.95
2023-01-25T18:56:17.792Z,101435.28
2023-01-25T18:59:23.339Z,101434.27
2023-01-25T19:02:30.580Z,101434.91
2023-01-25T19:05:37.900Z,101437.13
2023-01-25T19:08:46.200Z,101437.75
2023-01-25T19:11:51.702Z,101433.00
2023-01-25T19:14:59.375Z,101429.77
2023-01-25T19:18:04.522Z,101434.19
2023-01-25T19:21:11.087Z,101433.16
2023-01-25T19:24:19.281Z,101430.31
2023-01-25T19:27:24.957Z,101430.53
2023-01-25T19:30:31.603Z,101436.34
2023-01-25T19:33:37.946Z,101433.33
2023-01-25T19:36:53.540Z,101430.70
2023-01-25T19:39:59.856Z,101430.53
2023-01-25T19:43:05.697Z,101430.01
2023-01-25T19:46:21.872Z,101430.30
2023-01-25T19:49:28.802Z,101418.44
2023-01-25T19:52:34.868Z,101416.97
2023-01-25T19:55:40.784Z,101425.74
2023-01-25T19:58:45.325Z,101420.19
2023-01-25T20:01:52.508Z,101413.56
2023-01-25T20:04:58.049Z,101413.54
2023-01-25T20:08:04.302Z,101421.37
2023-01-25T20:11:20.199Z,101418.68
2023-01-25T20:14:26.557Z,101414.97
2023-01-25T20:17:31.500Z,101412.05
2023-01-25T20:20:36.901Z,101407.52
2023-01-25T20:23:44.564Z,101402.39
2023-01-25T20:26:50.715Z,101403.59
2023-01-25T20:29:57.050Z,101405.71
2023-01-25T20:33:04.608Z,101399.47
2023-01-25T20:36:15.576Z,101397.88
2023-01-25T20:39:21.386Z,101392.70
2023-01-25T20:42:26.651Z,101399.34
2023-01-25T20:45:32.322Z,101392.38
2023-01-25T20:48:43.721Z,101396.17
2023-01-25T20:51:51.106Z,101395.69
2023-01-25T20:54:58.828Z,101394.02
2023-01-25T20:58:05.172Z,101391.19
2023-01-25T21:01:10.601Z,101391.80
2023-01-25T21:04:16.468Z,101382.31
2023-01-25T21:07:14.686Z,101383.59
2023-01-25T21:10:20.671Z,101385.48
2023-01-25T21:13:19.888Z,101376.25
2023-01-25T21:16:24.809Z,101382.34
2023-01-25T21:19:30.542Z,101379.95
2023-01-25T21:22:38.519Z,101375.36
2023-01-25T21:25:43.549Z,101378.08
2023-01-25T21:28:51.382Z,101379.08
2023-01-25T21:31:58.743Z,101377.66
2023-01-25T21:35:03.976Z,101370.06
2023-01-25T21:38:09.810Z,101372.07
2023-01-25T21:41:16.516Z,101368.66
2023-01-25T21:44:41.875Z,101377.88
2023-01-25T21:47:48.483Z,101373.33
2023-01-25T21:51:07.730Z,101367.42
2023-01-25T21:54:02.084Z,101375.72
2023-01-25T21:57:07.360Z,101365.08
2023-01-25T22:00:12.973Z,101365.02
2023-01-25T22:03:18.590Z,101362.48
2023-01-25T22:06:24.711Z,101355.84
2023-01-25T22:09:30.186Z,101361.14
2023-01-25T22:12:35.733Z,101364.25
2023-01-25T22:15:41.530Z,101365.31
2023-01-25T22:18:49.831Z,101354.98
2023-01-25T22:21:55.033Z,101354.03
2023-01-25T22:25:03.751Z,101352.34
2023-01-25T22:28:13.992Z,101353.64
2023-01-25T22:31:20.149Z,101354.21
2023-01-25T22:34:26.501Z,101354.60
2023-01-25T22:37:32.482Z,101343.19
2023-01-25T22:40:31.251Z,101334.83
2023-01-25T22:43:30.944Z,101336.41
2023-01-25T22:46:41.374Z,101330.32
2023-01-25T22:49:47.251Z,101330.89
2023-01-25T22:52:52.832Z,101330.08
2023-01-25T22:55:59.006Z,101331.34
2023-01-25T22:59:05.639Z,101333.97
2023-01-25T23:02:11.073Z,101333.25
2023-01-25T23:05:15.802Z,101327.38
2023-01-25T23:08:21.714Z,101330.12
2023-01-25T23:11:35.862Z,101326.58
2023-01-25T23:15:00.472Z,101333.48
2023-01-25T23:18:17.101Z,101331.58
2023-01-25T23:21:22.962Z,101332.14
2023-01-25T23:24:29.129Z,101326.92
2023-01-25T23:27:34.976Z,101325.57
2023-01-25T23:30:42.208Z,101329.22
2023-01-25T23:33:48.439Z,101326.29
2023-01-25T23:36:55.946Z,101327.77
2023-01-25T23:40:01.851Z,101325.46
2023-01-25T23:43:00.391Z,101332.92
2023-01-25T23:46:07.028Z,101332.75
2023-01-25T23:49:12.988Z,101334.39
2023-01-25T23:52:18.612Z,101334.48
2023-01-25T23:55:24.935Z,101331.95
2023-01-25T23:58:29.910Z,101331.80
